Time;durP1;ratioP1;P1;durP2;ratioP2;P2;SDS_P1;SDS_P2;PMS_P1;PMS_P2;Temp;Humidity;BMP_temperature;BMP_pressure;BME280_temperature;BME280_humidity;BME280_pressure;Samples;Min_cycle;Max_cycle;Signal;HPM_P1;HPM_P2
2023/08/09 00:00:41;;;;;;;;;;;;;;;14.11;100.00;101175.19;5010419;28;954;-75
2023/08/09 00:03:06;;;;;;;;;;;;;;;14.13;100.00;101178.47;5008679;28;1021;-76
2023/08/09 00:05:31;;;;;;;;;;;;;;;14.14;100.00;101174.91;5008871;28;1160;-75
2023/08/09 00:07:57;;;;;;;;;;;;;;;14.13;100.00;101162.81;5008209;28;1118;-75
2023/08/09 00:10:22;;;;;;;;;;;;;;;14.11;100.00;101164.75;5003145;28;1906;-75
2023/08/09 00:12:48;;;;;;;;;;;;;;;14.11;100.00;101169.13;4990576;28;1215;-75
2023/08/09 00:15:13;;;;;;;;;;;;;;;14.10;100.00;101168.31;5006754;28;1033;-75
2023/08/09 00:17:38;;;;;;;;;;;;;;;14.09;100.00;101171.88;5007383;28;1094;-74
2023/08/09 00:20:04;;;;;;;;;;;;;;;14.06;100.00;101178.22;4990530;28;1301;-75
2023/08/09 00:22:30;;;;;;;;;;;;;;;14.06;100.00;101174.78;5008142;28;1104;-75
2023/08/09 00:24:56;;;;;;;;;;;;;;;14.03;100.00;101181.09;4990401;28;1481;-75
2023/08/09 00:27:22;;;;;;;;;;;;;;;14.01;100.00;101174.38;5007981;28;1079;-75
2023/08/09 00:29:47;;;;;;;;;;;;;;;14.01;100.00;101179.59;4991468;28;1189;-74
2023/08/09 00:32:12;;;;;;;;;;;;;;;14.02;100.00;101183.84;5010092;28;1906;-75
2023/08/09 00:34:37;;;;;;;;;;;;;;;13.99;100.00;101181.50;5023212;28;1178;-75
2023/08/09 00:37:02;;;;;;;;;;;;;;;13.98;100.00;101190.28;5007834;28;1085;-75
2023/08/09 00:39:29;;;;;;;;;;;;;;;13.97;100.00;101188.63;5009107;28;1321;-76
2023/08/09 00:41:55;;;;;;;;;;;;;;;13.96;100.00;101184.38;5009992;28;1224;-74
2023/08/09 00:44:20;;;;;;;;;;;;;;;13.95;100.00;101193.19;5025545;28;1147;-75
2023/08/09 00:46:45;;;;;;;;;;;;;;;13.95;100.00;101195.78;5009929;28;1091;-74
2023/08/09 00:49:10;;;;;;;;;;;;;;;13.93;100.00;101201.13;5009863;28;1060;-74
2023/08/09 00:51:36;;;;;;;;;;;;;;;13.92;100.00;101201.25;4992412;28;1967;-75
2023/08/09 00:54:01;;;;;;;;;;;;;;;13.92;100.00;101206.47;5009435;28;1105;-75
2023/08/09 00:56:26;;;;;;;;;;;;;;;13.91;100.00;101205.66;4991000;28;1297;-75
2023/08/09 00:58:52;;;;;;;;;;;;;;;13.88;100.00;101195.53;5008748;28;966;-75
2023/08/09 01:01:17;;;;;;;;;;;;;;;13.88;100.00;101192.06;5007743;28;934;-75
2023/08/09 01:03:43;;;;;;;;;;;;;;;13.87;100.00;101203.47;5007878;28;1105;-75
2023/08/09 01:06:11;;;;;;;;;;;;;;;13.85;100.00;101194.97;5007028;28;1148;-74
2023/08/09 01:08:44;;;;;;;;;;;;;;;13.81;100.00;101192.63;5001711;28;1117;-75
2023/08/09 01:11:23;;;;;;;;;;;;;;;13.78;100.00;101190.28;5000958;28;1974;-75
2023/08/09 01:13:51;;;;;;;;;;;;;;;13.79;100.00;101201.53;5007703;28;1077;-75
2023/08/09 01:16:17;;;;;;;;;;;;;;;13.76;100.00;101202.66;5007835;28;1104;-75
2023/08/09 01:18:43;;;;;;;;;;;;;;;13.73;100.00;101197.69;5008186;28;1087;-75
2023/08/09 01:21:08;;;;;;;;;;;;;;;13.70;100.00;101192.75;4990444;28;1217;-75
2023/08/09 01:23:36;;;;;;;;;;;;;;;13.68;100.00;101199.88;5007159;28;1296;-75
2023/08/09 01:26:01;;;;;;;;;;;;;;;13.65;100.00;101200.19;5009477;28;1081;-75
2023/08/09 01:28:26;;;;;;;;;;;;;;;13.63;100.00;101206.47;4991684;28;1202;-75
2023/08/09 01:30:52;;;;;;;;;;;;;;;13.60;100.00;101206.75;5011182;28;1914;-75
2023/08/09 01:33:17;;;;;;;;;;;;;;;13.58;100.00;101214.69;5013363;28;1136;-75
2023/08/09 01:35:47;;;;;;;;;;;;;;;13.56;100.00;101216.63;5013335;28;929;-75
2023/08/09 01:38:16;;;;;;;;;;;;;;;13.53;100.00;101217.72;5013125;28;1084;-74
2023/08/09 01:40:42;;;;;;;;;;;;;;;13.53;100.00;101224.69;5013461;28;1158;-75
2023/08/09 01:43:08;;;;;;;;;;;;;;;13.48;100.00;101213.88;4993458;28;1507;-75
2023/08/09 01:45:33;;;;;;;;;;;;;;;13.44;100.00;101212.47;4995275;28;1355;-74
2023/08/09 01:47:58;;;;;;;;;;;;;;;13.45;100.00;101214.13;5012133;28;1103;-76
2023/08/09 01:50:25;;;;;;;;;;;;;;;13.44;100.00;101220.31;5012591;28;1953;-75
2023/08/09 01:52:55;;;;;;;;;;;;;;;13.45;100.00;101220.16;5012709;28;1084;-75
2023/08/09 01:55:20;;;;;;;;;;;;;;;13.45;100.00;101224.53;5009950;28;950;-75
2023/08/09 01:57:46;;;;;;;;;;;;;;;13.45;100.00;101234.97;5011352;28;1103;-75
2023/08/09 02:00:12;;;;;;;;;;;;;;;13.44;100.00;101217.69;5011250;28;1222;-74
2023/08/09 02:02:37;;;;;;;;;;;;;;;13.45;100.00;101227.16;5011231;28;1104;-75
2023/08/09 02:05:03;;;;;;;;;;;;;;;13.47;100.00;101227.84;5010169;28;1085;-75
2023/08/09 02:07:28;;;;;;;;;;;;;;;13.50;100.00;101227.56;5009345;28;1142;-74
2023/08/09 02:09:53;;;;;;;;;;;;;;;13.46;100.00;101231.41;5010474;28;1021;-75
2023/08/09 02:12:19;;;;;;;;;;;;;;;13.45;100.00;101237.56;5011181;28;1910;-74
2023/08/09 02:14:44;;;;;;;;;;;;;;;13.43;100.00;101240.31;5011506;28;1160;-75
2023/08/09 02:17:10;;;;;;;;;;;;;;;13.42;100.00;101240.44;5009435;28;1132;-74
2023/08/09 02:19:35;;;;;;;;;;;;;;;13.41;100.00;101239.59;5010106;28;1150;-75
2023/08/09 02:22:00;;;;;;;;;;;;;;;13.45;100.00;101245.38;5011658;28;1127;-74
2023/08/09 02:24:26;;;;;;;;;;;;;;;13.43;100.00;101247.31;4993527;28;1313;-74
2023/08/09 02:26:51;;;;;;;;;;;;;;;13.44;100.00;101248.97;5010616;28;970;-74
2023/08/09 02:29:17;;;;;;;;;;;;;;;13.42;100.00;101248.25;4993171;28;1409;-74
2023/08/09 02:31:43;;;;;;;;;;;;;;;13.45;100.00;101250.59;5011258;28;1910;-74
2023/08/09 02:34:08;;;;;;;;;;;;;;;13.46;100.00;101247.03;5012573;28;1060;-75
2023/08/09 02:36:33;;;;;;;;;;;;;;;13.45;100.00;101250.59;5012472;28;1106;-74
2023/08/09 02:38:58;;;;;;;;;;;;;;;13.43;100.00;101257.75;5012990;28;1271;-75
2023/08/09 02:41:24;;;;;;;;;;;;;;;13.40;100.00;101255.38;5012117;28;1112;-74
2023/08/09 02:43:49;;;;;;;;;;;;;;;13.38;100.00;101257.31;5012324;28;1166;-75
2023/08/09 02:46:14;;;;;;;;;;;;;;;13.35;100.00;101255.78;5011307;28;1105;-74
2023/08/09 02:48:39;;;;;;;;;;;;;;;13.33;100.00;101267.31;5011450;28;1087;-74
2023/08/09 02:51:05;;;;;;;;;;;;;;;13.31;100.00;101258.81;5002714;28;1906;-74
2023/08/09 02:53:37;;;;;;;;;;;;;;;13.29;100.00;101267.56;5009199;28;1012;-74
2023/08/09 02:56:02;;;;;;;;;;;;;;;13.28;100.00;101271.13;5009047;28;1083;-74
2023/08/09 02:58:27;;;;;;;;;;;;;;;13.27;100.00;101269.47;5007768;28;1017;-74
2023/08/09 03:00:52;;;;;;;;;;;;;;;13.25;100.00;101283.59;5009760;28;1083;-74
2023/08/09 03:03:18;;;;;;;;;;;;;;;13.21;100.00;101275.22;5008314;28;1159;-76
2023/08/09 03:05:43;;;;;;;;;;;;;;;13.15;100.00;101277.50;5009261;28;1059;-74
2023/08/09 03:08:08;;;;;;;;;;;;;;;13.12;100.00;101273.34;5008521;28;1094;-74
2023/08/09 03:10:33;;;;;;;;;;;;;;;13.10;100.00;101277.88;5009838;28;1961;-74
2023/08/09 03:12:58;;;;;;;;;;;;;;;13.08;100.00;101274.59;4992334;28;1270;-74
2023/08/09 03:15:24;;;;;;;;;;;;;;;13.06;100.00;101270.44;5010281;28;1156;-74
2023/08/09 03:17:49;;;;;;;;;;;;;;;13.03;100.00;101271.53;5011565;28;1112;-74
2023/08/09 03:20:15;;;;;;;;;;;;;;;13.05;100.00;101269.63;4993759;28;1463;-74
2023/08/09 03:22:44;;;;;;;;;;;;;;;13.06;100.00;101265.22;5011869;28;1146;-74
2023/08/09 03:25:10;;;;;;;;;;;;;;;12.99;100.00;101275.34;5011086;28;1114;-76
2023/08/09 03:27:35;;;;;;;;;;;;;;;12.93;100.00;101270.66;5010979;28;1102;-74
2023/08/09 03:30:01;;;;;;;;;;;;;;;12.88;100.00;101284.06;5011705;28;1072;-74
2023/08/09 03:32:26;;;;;;;;;;;;;;;12.86;100.00;101287.75;5011272;28;1894;-74
2023/08/09 03:34:51;;;;;;;;;;;;;;;12.80;100.00;101280.47;5011451;28;1135;-74
2023/08/09 03:37:16;;;;;;;;;;;;;;;12.75;100.00;101294.69;5010796;28;1152;-75
2023/08/09 03:39:41;;;;;;;;;;;;;;;12.75;100.00;101289.47;4993735;28;1255;-74
2023/08/09 03:42:07;;;;;;;;;;;;;;;12.75;100.00;101299.06;5018858;28;1192;-75
2023/08/09 03:44:32;;;;;;;;;;;;;;;12.72;100.00;101300.13;5010189;28;1074;-74
2023/08/09 03:46:57;;;;;;;;;;;;;;;12.71;100.00;101303.69;5009138;28;1159;-75
2023/08/09 03:49:22;;;;;;;;;;;;;;;12.73;100.00;101301.81;5009105;28;1108;-74
2023/08/09 03:51:47;;;;;;;;;;;;;;;12.74;100.00;101307.84;5009203;28;1898;-75
2023/08/09 03:54:13;;;;;;;;;;;;;;;12.74;100.00;101303.44;4988908;28;1191;-74
2023/08/09 03:56:38;;;;;;;;;;;;;;;12.74;100.00;101319.06;4990205;28;1300;-74
2023/08/09 03:59:03;;;;;;;;;;;;;;;12.73;100.00;101320.03;5005740;28;1099;-74
2023/08/09 04:01:28;;;;;;;;;;;;;;;12.71;100.00;101311.50;4990175;28;1266;-74
2023/08/09 04:03:53;;;;;;;;;;;;;;;12.68;100.00;101311.75;5009639;28;1169;-74
2023/08/09 04:06:19;;;;;;;;;;;;;;;12.71;100.00;101319.31;5008973;28;1114;-74
2023/08/09 04:08:46;;;;;;;;;;;;;;;12.74;100.00;101313.84;5010050;28;1099;-76
2023/08/09 04:11:11;;;;;;;;;;;;;;;12.75;100.00;101315.50;5009786;28;1985;-76
2023/08/09 04:13:36;;;;;;;;;;;;;;;12.77;100.00;101320.56;5010932;28;1029;-75
2023/08/09 04:16:02;;;;;;;;;;;;;;;12.72;100.00;101331.34;5017936;28;1167;-74
2023/08/09 04:18:27;;;;;;;;;;;;;;;12.70;100.00;101325.47;5009939;28;1109;-74
2023/08/09 04:20:52;;;;;;;;;;;;;;;12.63;100.00;101326.94;5009243;28;1158;-75
2023/08/09 04:23:18;;;;;;;;;;;;;;;12.59;100.00;101320.31;5009131;28;1068;-75
2023/08/09 04:25:43;;;;;;;;;;;;;;;12.58;100.00;101333.47;4990985;28;1160;-74
2023/08/09 04:28:08;;;;;;;;;;;;;;;12.56;100.00;101333.59;5008642;28;1159;-74
2023/08/09 04:30:35;;;;;;;;;;;;;;;12.56;100.00;101335.34;4990411;28;1963;-74
2023/08/09 04:33:03;;;;;;;;;;;;;;;12.54;100.00;101332.88;5008776;28;1140;-74
2023/08/09 04:35:28;;;;;;;;;;;;;;;12.55;100.00;101342.34;5010046;28;1135;-74
2023/08/09 04:37:53;;;;;;;;;;;;;;;12.53;100.00;101341.63;4991842;28;1310;-74
2023/08/09 04:40:19;;;;;;;;;;;;;;;12.54;100.00;101337.25;5009164;28;1081;-74
2023/08/09 04:42:45;;;;;;;;;;;;;;;12.56;100.00;101346.59;5009265;28;1170;-73
2023/08/09 04:45:12;;;;;;;;;;;;;;;12.60;100.00;101344.56;5008262;28;1069;-74
2023/08/09 04:47:37;;;;;;;;;;;;;;;12.59;100.00;101350.72;4990056;28;1203;-74
2023/08/09 04:50:03;;;;;;;;;;;;;;;12.56;100.00;101351.81;5008494;28;953;-74
2023/08/09 04:52:28;;;;;;;;;;;;;;;12.53;100.00;101346.84;5008026;28;1969;-75
2023/08/09 04:54:53;;;;;;;;;;;;;;;12.55;100.00;101350.13;5006174;28;1134;-73
2023/08/09 04:57:19;;;;;;;;;;;;;;;12.53;100.00;101352.03;5006025;28;1004;-74
2023/08/09 04:59:44;;;;;;;;;;;;;;;12.52;100.00;101352.19;5008340;28;1075;-75
2023/08/09 05:02:09;;;;;;;;;;;;;;;12.51;100.00;101359.16;5008180;28;1134;-74
2023/08/09 05:04:34;;;;;;;;;;;;;;;12.52;100.00;101360.81;5007889;28;1096;-75
2023/08/09 05:07:02;;;;;;;;;;;;;;;12.53;100.00;101366.84;4990214;28;1265;-74
2023/08/09 05:09:27;;;;;;;;;;;;;;;12.54;100.00;101369.31;5009142;28;1087;-74
2023/08/09 05:11:52;;;;;;;;;;;;;;;12.54;100.00;101374.50;5009869;28;1898;-74
2023/08/09 05:14:18;;;;;;;;;;;;;;;12.52;100.00;101381.63;5009637;28;1075;-74
2023/08/09 05:16:43;;;;;;;;;;;;;;;12.54;100.00;101379.72;5009537;28;1031;-74
2023/08/09 05:19:08;;;;;;;;;;;;;;;12.58;100.00;101375.09;5009772;28;1108;-74
2023/08/09 05:21:33;;;;;;;;;;;;;;;12.59;100.00;101372.38;5009601;28;1089;-75
2023/08/09 05:23:58;;;;;;;;;;;;;;;12.62;100.00;101377.34;5010066;28;1101;-74
2023/08/09 05:26:23;;;;;;;;;;;;;;;12.66;100.00;101372.69;5009162;28;1045;-75
2023/08/09 05:28:50;;;;;;;;;;;;;;;12.69;100.00;101382.84;5009812;28;1111;-74
2023/08/09 05:31:15;;;;;;;;;;;;;;;12.72;100.00;101378.22;5009862;28;1898;-74
2023/08/09 05:33:41;;;;;;;;;;;;;;;12.76;100.00;101384.81;5009239;28;1116;-73
2023/08/09 05:36:06;;;;;;;;;;;;;;;12.80;100.00;101389.78;4990953;28;1640;-74
2023/08/09 05:38:31;;;;;;;;;;;;;;;12.85;100.00;101382.44;5008344;28;1147;-74
2023/08/09 05:40:56;;;;;;;;;;;;;;;12.90;100.00;101390.66;5007958;28;1134;-74
2023/08/09 05:43:21;;;;;;;;;;;;;;;12.96;100.00;101387.56;5007658;28;1092;-74
2023/08/09 05:45:47;;;;;;;;;;;;;;;13.03;100.00;101399.13;5006951;28;1332;-73
2023/08/09 05:48:12;;;;;;;;;;;;;;;13.06;100.00;101396.25;5017357;28;1177;-74
2023/08/09 05:50:37;;;;;;;;;;;;;;;13.10;100.00;101402.88;4997367;28;1898;-75
2023/08/09 05:53:02;;;;;;;;;;;;;;;13.15;100.00;101399.91;5007051;28;1075;-75
2023/08/09 05:55:28;;;;;;;;;;;;;;;13.20;100.00;101398.56;5006792;28;1100;-74
2023/08/09 05:57:55;;;;;;;;;;;;;;;13.24;100.00;101399.97;4988698;28;2080;-74
2023/08/09 06:00:20;;;;;;;;;;;;;;;13.28;100.00;101409.19;5007568;28;1183;-74
2023/08/09 06:02:45;;;;;;;;;;;;;;;13.33;100.00;101407.97;5007199;28;991;-74
2023/08/09 06:05:17;;;;;;;;;;;;;;;13.36;100.00;101410.31;5008442;28;1031;-74
2023/08/09 06:07:42;;;;;;;;;;;;;;;13.37;100.00;101410.22;5008772;28;1171;-74
2023/08/09 06:10:07;;;;;;;;;;;;;;;13.45;100.00;101414.75;5009157;28;1268;-74
2023/08/09 06:12:32;;;;;;;;;;;;;;;13.49;100.00;101418.78;5008677;28;1898;-74
2023/08/09 06:14:58;;;;;;;;;;;;;;;13.51;100.00;101411.63;5009214;28;1110;-74
2023/08/09 06:17:23;;;;;;;;;;;;;;;13.53;100.00;101420.13;5011164;28;1075;-74
2023/08/09 06:19:48;;;;;;;;;;;;;;;13.58;100.00;101427.59;4995279;28;1320;-74
2023/08/09 06:22:13;;;;;;;;;;;;;;;13.65;100.00;101432.16;5013219;28;1047;-74
2023/08/09 06:24:38;;;;;;;;;;;;;;;13.69;100.00;101425.72;5012866;28;1103;-74
2023/08/09 06:27:04;;;;;;;;;;;;;;;13.70;100.00;101421.31;5012599;28;1104;-74
2023/08/09 06:29:29;;;;;;;;;;;;;;;13.74;100.00;101428.75;5012484;28;1104;-74
2023/08/09 06:31:54;;;;;;;;;;;;;;;13.80;100.00;101438.66;5011974;28;1902;-74
2023/08/09 06:34:19;;;;;;;;;;;;;;;13.86;100.00;101436.47;5012344;28;1081;-74
2023/08/09 06:36:44;;;;;;;;;;;;;;;13.93;100.00;101437.59;5010231;28;1076;-74
2023/08/09 06:39:10;;;;;;;;;;;;;;;14.00;100.00;101443.97;5010652;28;1273;-74
2023/08/09 06:41:35;;;;;;;;;;;;;;;14.06;100.00;101438.22;5010385;28;1125;-75
2023/08/09 06:44:00;;;;;;;;;;;;;;;14.13;100.00;101448.94;5010284;28;1115;-75
2023/08/09 06:46:26;;;;;;;;;;;;;;;14.19;100.00;101444.00;4991845;28;1310;-74
2023/08/09 06:48:51;;;;;;;;;;;;;;;14.26;100.00;101444.31;5005459;28;1329;-75
2023/08/09 06:51:18;;;;;;;;;;;;;;;14.32;100.00;101455.03;5010520;28;1902;-74
2023/08/09 06:53:43;;;;;;;;;;;;;;;14.39;100.00;101459.69;5011010;28;1080;-74
2023/08/09 06:56:09;;;;;;;;;;;;;;;14.45;100.00;101464.38;5009328;28;1154;-75
2023/08/09 06:58:34;;;;;;;;;;;;;;;14.51;100.00;101464.72;5008611;28;1088;-75
2023/08/09 07:01:02;;;;;;;;;;;;;;;14.50;100.00;101464.84;5010943;28;1083;-74
2023/08/09 07:03:28;;;;;;;;;;;;;;;14.56;100.00;101466.91;4993838;28;1356;-75
2023/08/09 07:05:54;;;;;;;;;;;;;;;14.65;100.00;101466.09;5006911;28;1154;-74
2023/08/09 07:08:21;;;;;;;;;;;;;;;14.74;100.00;101473.13;5011429;28;1144;-74
2023/08/09 07:10:46;;;;;;;;;;;;;;;14.77;100.00;101464.19;5011309;28;1897;-75
2023/08/09 07:13:11;;;;;;;;;;;;;;;14.81;100.00;101474.22;5011658;28;1142;-75
2023/08/09 07:15:37;;;;;;;;;;;;;;;14.86;100.00;101474.66;5011474;28;1106;-76
2023/08/09 07:18:02;;;;;;;;;;;;;;;14.95;100.00;101477.38;5011559;28;1139;-75
2023/08/09 07:20:27;;;;;;;;;;;;;;;15.00;100.00;101475.19;5011754;28;1063;-75
2023/08/09 07:22:52;;;;;;;;;;;;;;;15.06;100.00;101479.84;5011983;28;1061;-75
2023/08/09 07:25:18;;;;;;;;;;;;;;;15.11;100.00;101473.25;5011789;28;1102;-74
2023/08/09 07:27:43;;;;;;;;;;;;;;;15.16;100.00;101475.47;5008641;28;1159;-75
2023/08/09 07:30:10;;;;;;;;;;;;;;;15.25;100.00;101476.41;5009749;28;1104;-75
2023/08/09 07:32:38;;;;;;;;;;;;;;;15.32;100.00;101480.94;4991882;28;1957;-74
2023/08/09 07:35:04;;;;;;;;;;;;;;;15.44;100.00;101472.94;4990343;28;1081;-74
2023/08/09 07:37:30;;;;;;;;;;;;;;;15.48;100.00;101477.72;4990000;28;1077;-74
2023/08/09 07:39:55;;;;;;;;;;;;;;;15.50;100.00;101477.63;4973411;28;1287;-74
2023/08/09 07:42:20;;;;;;;;;;;;;;;15.56;100.00;101487.50;4990358;28;1089;-75
2023/08/09 07:44:45;;;;;;;;;;;;;;;15.65;100.00;101486.66;4991353;28;1081;-76
2023/08/09 07:47:10;;;;;;;;;;;;;;;15.69;100.00;101495.88;4974828;28;1317;-75
2023/08/09 07:49:36;;;;;;;;;;;;;;;15.77;100.00;101495.16;4976787;28;1385;-74
2023/08/09 07:52:01;;;;;;;;;;;;;;;15.88;100.00;101502.84;4978743;28;1956;-75
2023/08/09 07:54:26;;;;;;;;;;;;;;;15.93;100.00;101501.44;4994898;28;1184;-75
2023/08/09 07:56:51;;;;;;;;;;;;;;;15.98;100.00;101502.81;4980303;28;1373;-75
2023/08/09 07:59:18;;;;;;;;;;;;;;;16.02;100.00;101498.94;4996275;28;1098;-74
2023/08/09 08:01:43;;;;;;;;;;;;;;;16.08;100.00;101499.19;4999933;28;1101;-75
2023/08/09 08:04:08;;;;;;;;;;;;;;;16.19;100.00;101501.63;5001802;28;1233;-75
2023/08/09 08:06:34;;;;;;;;;;;;;;;16.32;100.00;101495.22;4999549;28;1124;-75
2023/08/09 08:09:00;;;;;;;;;;;;;;;16.34;100.00;101504.56;5003984;28;1094;-75
2023/08/09 08:11:25;;;;;;;;;;;;;;;16.44;100.00;101513.19;5002235;28;1898;-74
2023/08/09 08:13:50;;;;;;;;;;;;;;;16.45;100.00;101506.97;4985928;28;1332;-74
2023/08/09 08:16:15;;;;;;;;;;;;;;;16.55;100.00;101511.34;5005189;28;1110;-74
2023/08/09 08:18:41;;;;;;;;;;;;;;;16.49;100.00;101518.00;5003505;28;1040;-75
2023/08/09 08:21:06;;;;;;;;;;;;;;;16.55;100.00;101517.41;5006216;28;1094;-75
2023/08/09 08:23:32;;;;;;;;;;;;;;;16.60;100.00;101516.97;5004190;28;1114;-76
2023/08/09 08:25:57;;;;;;;;;;;;;;;16.65;100.00;101525.22;5006673;28;1128;-75
2023/08/09 08:28:22;;;;;;;;;;;;;;;16.74;100.00;101524.34;5005617;28;1150;-75
2023/08/09 08:30:48;;;;;;;;;;;;;;;16.84;100.00;101527.72;5005407;28;1975;-75
2023/08/09 08:33:13;;;;;;;;;;;;;;;16.90;100.00;101526.31;4989496;28;1308;-74
2023/08/09 08:35:43;;;;;;;;;;;;;;;16.94;100.00;101528.47;5006659;28;1095;-75
2023/08/09 08:38:08;;;;;;;;;;;;;;;16.96;100.00;101537.00;4985557;28;1472;-75
2023/08/09 08:40:34;;;;;;;;;;;;;;;17.05;100.00;101539.72;4987695;28;1085;-75
2023/08/09 08:42:59;;;;;;;;;;;;;;;17.14;100.00;101544.03;4989961;28;1148;-75
2023/08/09 08:45:24;;;;;;;;;;;;;;;17.26;100.00;101548.09;4990651;28;1100;-75
2023/08/09 08:47:49;;;;;;;;;;;;;;;17.32;100.00;101547.50;4991592;28;1088;-75
2023/08/09 08:50:15;;;;;;;;;;;;;;;17.36;100.00;101551.44;4992004;28;1369;-75
2023/08/09 08:52:42;;;;;;;;;;;;;;;17.41;100.00;101551.00;4992273;28;1967;-75
2023/08/09 08:55:09;;;;;;;;;;;;;;;17.45;100.00;101555.78;4976756;28;1463;-75
2023/08/09 08:57:35;;;;;;;;;;;;;;;17.47;100.00;101561.69;4991536;28;1057;-74
2023/08/09 09:00:02;;;;;;;;;;;;;;;17.45;100.00;101553.19;4997763;28;1078;-75
2023/08/09 09:02:27;;;;;;;;;;;;;;;17.47;100.00;101561.69;4995986;28;1144;-75
2023/08/09 09:04:52;;;;;;;;;;;;;;;17.46;99.86;101567.09;4998071;28;1081;-75
2023/08/09 09:07:18;;;;;;;;;;;;;;;17.40;99.65;101565.09;4998117;28;1151;-75
2023/08/09 09:09:43;;;;;;;;;;;;;;;17.39;99.01;101561.66;4980529;28;1328;-75
2023/08/09 09:12:09;;;;;;;;;;;;;;;17.43;99.12;101565.63;5001489;28;1965;-75
2023/08/09 09:14:35;;;;;;;;;;;;;;;17.48;99.21;101559.91;4999262;28;1177;-75
2023/08/09 09:17:01;;;;;;;;;;;;;;;17.56;98.75;101559.16;5002085;28;1085;-75
2023/08/09 09:19:26;;;;;;;;;;;;;;;17.65;98.53;101563.47;5001775;28;1131;-75
2023/08/09 09:21:51;;;;;;;;;;;;;;;17.72;98.50;101560.13;5002056;28;1113;-74
2023/08/09 09:24:19;;;;;;;;;;;;;;;17.84;98.40;101562.50;5002663;28;941;-75
2023/08/09 09:26:51;;;;;;;;;;;;;;;17.98;97.92;101559.28;4981552;28;1141;-75
2023/08/09 09:29:17;;;;;;;;;;;;;;;18.06;96.78;101561.94;5002795;28;1261;-75
2023/08/09 09:31:43;;;;;;;;;;;;;;;18.08;96.65;101569.69;5002180;28;1894;-75
2023/08/09 09:34:11;;;;;;;;;;;;;;;18.04;95.84;101569.97;5005539;28;1087;-75
2023/08/09 09:36:40;;;;;;;;;;;;;;;18.08;95.63;101569.69;5004881;28;1051;-76
2023/08/09 09:39:11;;;;;;;;;;;;;;;18.15;95.24;101565.44;5005773;28;1122;-75
2023/08/09 09:41:38;;;;;;;;;;;;;;;18.31;94.34;101566.34;5007145;28;1133;-76
2023/08/09 09:44:03;;;;;;;;;;;;;;;18.47;94.05;101570.84;5006534;28;1079;-75
2023/08/09 09:46:28;;;;;;;;;;;;;;;18.57;93.62;101561.00;4993178;28;1092;-75
2023/08/09 09:49:04;;;;;;;;;;;;;;;18.63;92.86;101564.81;4972005;28;1365;-75
2023/08/09 09:51:30;;;;;;;;;;;;;;;18.56;92.98;101562.00;4992853;28;1969;-75
2023/08/09 09:53:56;;;;;;;;;;;;;;;18.55;91.78;101557.75;4979237;28;1172;-75
2023/08/09 09:56:21;;;;;;;;;;;;;;;18.60;91.89;101549.38;4995630;28;1222;-75
2023/08/09 09:58:47;;;;;;;;;;;;;;;18.76;91.14;101553.91;4993192;28;1045;-75
2023/08/09 10:01:14;;;;;;;;;;;;;;;18.80;88.22;101563.09;4998895;28;983;-74
2023/08/09 10:03:42;;;;;;;;;;;;;;;18.81;89.79;101562.13;4998342;28;1148;-75
2023/08/09 10:06:08;;;;;;;;;;;;;;;18.83;90.13;101565.41;4983344;28;1316;-75
2023/08/09 10:08:34;;;;;;;;;;;;;;;18.88;89.91;101563.13;4981863;28;1107;-75
2023/08/09 10:11:01;;;;;;;;;;;;;;;18.95;89.25;101564.09;5001591;28;1898;-74
2023/08/09 10:13:27;;;;;;;;;;;;;;;18.96;89.30;101565.75;5001807;28;1111;-75
2023/08/09 10:15:54;;;;;;;;;;;;;;;18.98;88.63;101568.22;5001249;28;1156;-75
2023/08/09 10:18:23;;;;;;;;;;;;;;;18.96;88.37;101571.00;5002104;28;1170;-76
2023/08/09 10:20:51;;;;;;;;;;;;;;;18.96;88.15;101573.63;5000524;28;1089;-75
2023/08/09 10:23:18;;;;;;;;;;;;;;;18.88;88.15;101573.63;5003870;28;1122;-75
2023/08/09 10:25:44;;;;;;;;;;;;;;;18.90;88.28;101582.16;5001506;28;1150;-75
2023/08/09 10:28:10;;;;;;;;;;;;;;;18.92;87.84;101588.06;5003589;28;1025;-75
2023/08/09 10:30:43;;;;;;;;;;;;;;;18.94;87.69;101596.66;5004218;28;1902;-75
2023/08/09 10:33:09;;;;;;;;;;;;;;;19.01;87.65;101599.44;5003821;28;1145;-75
2023/08/09 10:35:50;;;;;;;;;;;;;;;19.10;87.82;101591.41;5006173;28;1102;-75
2023/08/09 10:38:16;;;;;;;;;;;;;;;19.22;86.68;101586.66;4977878;28;1395;-76
2023/08/09 10:40:42;;;;;;;;;;;;;;;19.32;86.79;101591.75;5008794;28;1120;-76
2023/08/09 10:43:10;;;;;;;;;;;;;;;19.39;85.71;101586.69;5007915;28;994;-76
2023/08/09 10:45:37;;;;;;;;;;;;;;;19.52;85.67;101592.25;4991691;28;1397;-76
2023/08/09 10:48:21;;;;;;;;;;;;;;;19.60;85.61;101590.47;5010578;28;1154;-75
2023/08/09 10:50:46;;;;;;;;;;;;;;;19.59;85.64;101580.94;5011759;28;1967;-75
2023/08/09 10:53:11;;;;;;;;;;;;;;;19.58;85.44;101581.91;5001191;28;1112;-75
2023/08/09 10:55:37;;;;;;;;;;;;;;;19.65;84.78;101581.25;4992969;28;1092;-75
2023/08/09 10:58:02;;;;;;;;;;;;;;;19.73;84.00;101581.25;4989133;28;1089;-76
2023/08/09 11:00:35;;;;;;;;;;;;;;;19.82;83.67;101583.69;4994713;28;1097;-75
2023/08/09 11:03:00;;;;;;;;;;;;;;;19.94;83.92;101592.06;4978307;28;1345;-75
2023/08/09 11:05:27;;;;;;;;;;;;;;;20.12;84.00;101590.03;4995395;28;1168;-76
2023/08/09 11:07:54;;;;;;;;;;;;;;;20.26;80.96;101590.34;4995798;28;1056;-75
2023/08/09 11:10:32;;;;;;;;;;;;;;;20.30;82.54;101578.47;4980714;28;1439;-75
2023/08/09 11:13:02;;;;;;;;;;;;;;;20.42;82.66;101587.66;4996726;28;1069;-76
2023/08/09 11:15:27;;;;;;;;;;;;;;;20.56;82.24;101592.22;4998390;28;1086;-76
2023/08/09 11:17:53;;;;;;;;;;;;;;;20.62;81.31;101591.53;4978659;28;1247;-76
2023/08/09 11:20:19;;;;;;;;;;;;;;;20.52;80.45;101590.91;5000201;28;1142;-76
2023/08/09 11:22:55;;;;;;;;;;;;;;;20.42;80.42;101591.13;4997909;28;1145;-76
2023/08/09 11:25:20;;;;;;;;;;;;;;;20.31;80.25;101593.31;4994070;28;1068;-76
2023/08/09 11:27:46;;;;;;;;;;;;;;;20.19;79.72;101597.28;5000234;28;1197;-76
2023/08/09 11:30:12;;;;;;;;;;;;;;;20.12;78.83;101599.75;4990187;28;1439;-76
2023/08/09 11:32:38;;;;;;;;;;;;;;;20.11;79.90;101598.94;5009666;28;1898;-76
2023/08/09 11:35:03;;;;;;;;;;;;;;;20.12;77.85;101605.84;5009524;28;1073;-75
2023/08/09 11:37:32;;;;;;;;;;;;;;;20.12;77.75;101611.09;5008997;28;1264;-75
2023/08/09 11:39:57;;;;;;;;;;;;;;;20.22;78.92;101610.09;5009564;28;1075;-75
2023/08/09 11:42:22;;;;;;;;;;;;;;;20.36;77.28;101607.59;5010735;28;1075;-75
2023/08/09 11:44:47;;;;;;;;;;;;;;;20.43;75.22;101613.00;4993741;28;1177;-75
2023/08/09 11:47:13;;;;;;;;;;;;;;;20.47;76.40;101614.31;5010775;28;1144;-76
2023/08/09 11:49:38;;;;;;;;;;;;;;;20.57;75.76;101620.22;5011257;28;1122;-75
2023/08/09 11:52:03;;;;;;;;;;;;;;;20.63;72.43;101619.53;4993112;28;1953;-76
2023/08/09 11:54:29;;;;;;;;;;;;;;;20.66;72.89;101608.66;5009208;28;1279;-76
2023/08/09 11:56:54;;;;;;;;;;;;;;;20.77;72.24;101623.28;4992702;28;1129;-76
2023/08/09 11:59:20;;;;;;;;;;;;;;;20.78;73.38;101616.19;5010217;28;1007;-75
2023/08/09 12:01:46;;;;;;;;;;;;;;;20.76;73.11;101618.16;5010962;28;1156;-76
2023/08/09 12:04:17;;;;;;;;;;;;;;;20.87;74.23;101620.41;5010296;28;1081;-76
2023/08/09 12:06:49;;;;;;;;;;;;;;;20.91;73.16;101621.72;4992690;28;1396;-76
2023/08/09 12:09:30;;;;;;;;;;;;;;;20.81;72.38;101629.81;4992494;28;1168;-76
2023/08/09 12:12:02;;;;;;;;;;;;;;;20.79;73.14;101633.63;5008671;28;1965;-75
2023/08/09 12:14:27;;;;;;;;;;;;;;;20.80;73.71;101636.09;4990615;28;1197;-75
2023/08/09 12:16:52;;;;;;;;;;;;;;;20.79;72.21;101637.09;4990853;28;1441;-75
2023/08/09 12:19:17;;;;;;;;;;;;;;;20.64;73.00;101637.00;5008233;28;1088;-75
2023/08/09 12:21:42;;;;;;;;;;;;;;;20.74;71.25;101635.97;5008541;28;1038;-76
2023/08/09 12:24:07;;;;;;;;;;;;;;;20.82;69.93;101635.94;5007419;28;1101;-75
2023/08/09 12:26:33;;;;;;;;;;;;;;;20.74;68.40;101633.34;5008092;28;929;-75
2023/08/09 12:28:58;;;;;;;;;;;;;;;20.73;68.95;101634.31;5008652;28;1081;-75
2023/08/09 12:31:24;;;;;;;;;;;;;;;20.73;68.51;101640.41;4991225;28;2005;-75
2023/08/09 12:33:50;;;;;;;;;;;;;;;20.64;68.76;101639.66;5009020;28;1123;-75